createdAt,value
2018-09-10T00:00:02.162Z,98021.36
2018-09-10T00:01:38.641Z,97999.50
2018-09-10T00:03:15.762Z,97981.89
2018-09-10T00:04:51.600Z,97988.50
2018-09-10T00:06:26.863Z,97973.61
2018-09-10T00:08:03.645Z,97966.64
2018-09-10T00:09:39.428Z,97949.67
2018-09-10T00:11:15.576Z,97957.50
2018-09-10T00:12:51.907Z,97975.93
2018-09-10T00:14:29.362Z,97978.02
2018-09-10T00:16:06.422Z,97995.22
2018-09-10T00:17:41.834Z,98031.27
2018-09-10T00:19:17.076Z,98022.58
2018-09-10T00:20:52.783Z,98013.80
2018-09-10T00:22:28.087Z,97994.36
2018-09-10T00:24:03.470Z,97978.98
2018-09-10T00:25:38.943Z,97982.17
2018-09-10T00:27:14.964Z,97966.27
2018-09-10T00:28:50.257Z,97950.16
2018-09-10T00:30:26.158Z,97943.08
2018-09-10T00:32:02.383Z,97929.54
2018-09-10T00:33:38.177Z,97911.97
2018-09-10T00:35:13.732Z,97919.55
2018-09-10T00:36:49.618Z,97904.30
2018-09-10T00:38:25.736Z,97924.92
2018-09-10T00:40:01.649Z,97926.11
2018-09-10T00:41:36.869Z,97926.63
2018-09-10T00:43:13.427Z,97939.80
2018-09-10T00:44:49.776Z,97940.66
2018-09-10T00:46:25.683Z,97950.66
2018-09-10T00:48:01.051Z,97958.59
2018-09-10T00:49:36.574Z,97971.44
2018-09-10T00:51:11.905Z,97973.63
2018-09-10T00:52:47.565Z,97969.60
2018-09-10T00:54:22.828Z,97960.06
2018-09-10T00:55:58.133Z,97973.63
2018-09-10T00:57:33.449Z,97988.15
2018-09-10T00:59:09.066Z,98011.84
2018-09-10T01:00:44.535Z,98038.23
2018-09-10T01:02:20.374Z,98042.14
2018-09-10T01:03:56.497Z,98079.66
2018-09-10T01:05:33.150Z,98095.78
2018-09-10T01:07:08.506Z,98116.91
2018-09-10T01:08:43.730Z,98124.38
2018-09-10T01:10:19.255Z,98107.12
2018-09-10T01:11:55.438Z,98123.16
2018-09-10T01:13:30.712Z,98135.84
2018-09-10T01:15:08.011Z,98177.52
2018-09-10T01:16:43.565Z,98228.52
2018-09-10T01:18:18.842Z,98299.50
2018-09-10T01:19:55.127Z,98351.88
2018-09-10T01:21:30.903Z,98407.17
2018-09-10T01:23:06.549Z,98466.69
2018-09-10T01:24:42.087Z,98486.03
2018-09-10T01:26:17.574Z,98467.40
2018-09-10T01:27:53.380Z,98471.44
2018-09-10T01:29:29.676Z,98440.73
2018-09-10T01:31:05.538Z,98402.88
2018-09-10T01:32:41.037Z,98349.30
2018-09-10T01:34:21.365Z,98310.50
2018-09-10T01:35:57.062Z,98274.05
2018-09-10T01:37:33.129Z,98266.59
2018-09-10T01:39:10.027Z,98387.59
2018-09-10T01:40:46.034Z,98602.05
2018-09-10T01:42:21.302Z,98782.68
2018-09-10T01:43:56.727Z,98856.79
2018-09-10T01:45:35.182Z,98884.65
2018-09-10T01:47:11.356Z,98923.05
2018-09-10T01:48:47.822Z,98926.13
2018-09-10T01:50:23.153Z,98845.84
2018-09-10T01:51:58.802Z,98815.44
2018-09-10T01:53:34.057Z,98734.23
2018-09-10T01:55:09.921Z,98625.11
2018-09-10T01:56:45.287Z,98505.38
2018-09-10T01:58:20.840Z,98497.03
2018-09-10T01:59:56.572Z,98531.34
2018-09-10T02:01:32.271Z,98546.66
2018-09-10T02:03:07.582Z,98589.03
2018-09-10T02:04:43.514Z,98601.30
2018-09-10T02:06:20.913Z,98474.14
2018-09-10T02:07:56.157Z,98413.31
2018-09-10T02:09:31.728Z,98384.78
2018-09-10T02:11:07.127Z,98356.89
2018-09-10T02:12:42.793Z,98442.94
2018-09-10T02:14:18.473Z,98535.77
2018-09-10T02:15:54.194Z,98594.80
2018-09-10T02:17:29.646Z,98631.85
2018-09-10T02:19:05.597Z,98737.29
2018-09-10T02:22:11.910Z,98954.63
2018-09-10T02:23:47.137Z,98896.53
2018-09-10T02:25:22.661Z,98693.61
2018-09-10T02:26:58.091Z,98642.52
2018-09-10T02:28:33.359Z,98796.87
2018-09-10T02:30:09.642Z,98824.73
2018-09-10T02:31:45.617Z,98789.79
2018-09-10T02:33:21.200Z,98733.36
2018-09-10T02:34:56.510Z,98815.28
2018-09-10T02:36:31.850Z,98844.00
2018-09-10T02:38:07.735Z,98918.13
2018-09-10T02:39:43.290Z,98923.05
2018-09-10T02:41:18.779Z,98721.45
2018-09-10T02:42:54.159Z,98488.47
2018-09-10T02:44:29.990Z,98344.64
2018-09-10T02:46:05.765Z,98329.72
2018-09-10T02:47:41.183Z,98449.30
2018-09-10T02:49:16.541Z,98532.44
2018-09-10T02:50:52.253Z,98661.63
2018-09-10T02:52:27.601Z,98757.75
2018-09-10T02:54:02.946Z,98733.47
2018-09-10T02:55:38.282Z,98729.69
2018-09-10T02:57:14.419Z,98765.36
2018-09-10T02:58:49.819Z,98850.02
2018-09-10T03:00:26.188Z,98930.28
2018-09-10T03:02:02.613Z,98952.75
2018-09-10T03:03:38.715Z,99021.67
2018-09-10T03:05:14.365Z,99082.14
2018-09-10T03:06:50.005Z,99120.09
2018-09-10T03:08:25.354Z,99128.58
2018-09-10T03:10:01.007Z,99117.98
2018-09-10T03:11:36.372Z,99143.19
2018-09-10T03:13:11.780Z,99188.81
2018-09-10T03:14:47.703Z,99117.02
2018-09-10T03:16:24.866Z,99079.66
2018-09-10T03:18:00.241Z,99096.84
2018-09-10T03:19:35.402Z,99035.92
2018-09-10T03:21:11.770Z,99003.73
2018-09-10T03:22:47.558Z,98956.05
2018-09-10T03:24:23.213Z,98941.19
2018-09-10T03:25:58.583Z,98944.15
2018-09-10T03:27:33.920Z,98933.57
2018-09-10T03:29:09.376Z,98983.46
2018-09-10T03:30:45.830Z,98964.03
2018-09-10T03:32:21.388Z,98859.81
2018-09-10T03:33:57.167Z,98914.67
2018-09-10T03:35:32.608Z,98989.23
2018-09-10T03:37:08.755Z,98970.19
2018-09-10T03:38:43.968Z,98945.50
2018-09-10T03:40:19.870Z,98950.52
2018-09-10T03:41:55.260Z,98900.94
2018-09-10T03:43:33.842Z,98882.90
2018-09-10T03:45:10.723Z,98982.70
2018-09-10T03:46:45.899Z,98889.50
2018-09-10T03:48:21.294Z,98860.44
2018-09-10T03:49:56.532Z,98864.48
2018-09-10T03:51:32.273Z,98898.95
2018-09-10T03:53:07.849Z,99019.81
2018-09-10T03:54:43.043Z,99109.77
2018-09-10T03:56:18.306Z,99141.33
2018-09-10T03:57:54.034Z,99037.01
2018-09-10T03:59:29.585Z,98856.50
2018-09-10T04:01:05.181Z,98782.40
2018-09-10T04:02:40.347Z,98816.02
2018-09-10T04:04:16.005Z,98763.52
2018-09-10T04:05:51.245Z,98601.16
2018-09-10T04:07:26.645Z,98469.13
2018-09-10T04:09:05.048Z,98300.32
2018-09-10T04:10:41.125Z,98201.77
2018-09-10T04:12:16.483Z,98188.58
2018-09-10T04:13:53.076Z,98138.58
2018-09-10T04:15:28.536Z,98168.41
2018-09-10T04:17:04.276Z,98196.16
2018-09-10T04:18:39.685Z,98207.52
2018-09-10T04:20:15.138Z,98307.42
2018-09-10T04:21:50.718Z,98328.49
2018-09-10T04:23:26.383Z,98282.23
2018-09-10T04:25:02.796Z,98187.34
2018-09-10T04:26:38.051Z,98133.31
2018-09-10T04:28:13.322Z,98179.87
2018-09-10T04:29:48.946Z,98131.11
2018-09-10T04:31:24.727Z,98098.63
2018-09-10T04:32:59.956Z,98121.97
2018-09-10T04:34:35.200Z,98063.06
2018-09-10T04:36:10.385Z,98030.11
2018-09-10T04:37:45.573Z,98034.14
2018-09-10T04:39:21.612Z,98096.43
2018-09-10T04:40:56.920Z,98174.16
2018-09-10T04:42:32.881Z,98193.95
2018-09-10T04:44:08.664Z,98178.69
2018-09-10T04:45:44.690Z,98186.98
2018-09-10T04:47:19.980Z,98203.59
2018-09-10T04:48:55.277Z,98204.45
2018-09-10T04:50:31.000Z,98278.80
2018-09-10T04:52:06.326Z,98381.84
2018-09-10T04:53:41.762Z,98453.08
2018-09-10T04:55:21.349Z,98485.17
2018-09-10T04:56:57.536Z,98514.32
2018-09-10T04:58:32.883Z,98491.42
2018-09-10T05:00:10.162Z,98500.22
2018-09-10T05:01:45.780Z,98520.08
2018-09-10T05:03:22.903Z,98558.41
2018-09-10T05:04:59.649Z,98514.80
2018-09-10T05:06:35.982Z,98513.09
2018-09-10T05:08:11.185Z,98566.86
2018-09-10T05:09:46.790Z,98631.55
2018-09-10T05:11:26.449Z,98654.84
2018-09-10T05:13:01.798Z,98564.54
2018-09-10T05:14:37.047Z,98483.08
2018-09-10T05:16:12.850Z,98456.41
2018-09-10T05:17:48.157Z,98479.64
2018-09-10T05:19:23.427Z,98541.75
2018-09-10T05:21:00.261Z,98601.16
2018-09-10T05:22:36.122Z,98544.06
2018-09-10T05:24:11.299Z,98514.92
2018-09-10T05:25:46.471Z,98451.14
2018-09-10T05:27:21.686Z,98407.56
2018-09-10T05:28:57.301Z,98463.48
2018-09-10T05:30:32.559Z,98553.27
2018-09-10T05:32:07.817Z,98591.60
2018-09-10T05:33:43.031Z,98681.58
2018-09-10T05:35:18.928Z,98559.00
2018-09-10T05:36:54.381Z,98415.01
2018-09-10T05:38:29.561Z,98348.20
2018-09-10T05:40:06.062Z,98343.08
2018-09-10T05:41:41.708Z,98374.62
2018-09-10T05:43:18.485Z,98493.48
2018-09-10T05:44:53.677Z,98604.10
2018-09-10T05:46:31.110Z,98687.34
2018-09-10T05:48:06.878Z,98790.97
2018-09-10T05:49:45.618Z,98802.36
2018-09-10T05:51:20.847Z,98823.61
2018-09-10T05:52:56.113Z,98845.31
2018-09-10T05:54:33.595Z,98752.70
2018-09-10T05:56:09.182Z,98671.50
2018-09-10T05:57:44.428Z,98797.22
2018-09-10T05:59:19.583Z,98898.70
2018-09-10T06:00:56.018Z,98847.14
2018-09-10T06:02:31.235Z,98816.98
2018-09-10T06:04:06.576Z,98760.54
2018-09-10T06:05:43.770Z,98867.50
2018-09-10T06:07:19.441Z,99027.66
2018-09-10T06:08:54.791Z,99049.63
2018-09-10T06:10:30.174Z,99104.42
2018-09-10T06:12:05.393Z,99092.52
2018-09-10T06:13:41.359Z,98925.70
2018-09-10T06:15:18.287Z,98857.45
2018-09-10T06:16:53.733Z,98955.29
2018-09-10T06:18:30.934Z,99052.47
2018-09-10T06:20:06.827Z,99144.36
2018-09-10T06:21:42.161Z,99194.27
2018-09-10T06:23:22.297Z,99153.56
2018-09-10T06:25:03.797Z,99165.99
2018-09-10T06:26:44.428Z,99247.02
2018-09-10T06:28:19.874Z,99310.60
2018-09-10T06:29:57.641Z,99317.36
2018-09-10T06:31:34.856Z,99310.22
2018-09-10T06:33:11.533Z,99400.45
2018-09-10T06:34:47.589Z,99425.06
2018-09-10T06:36:26.503Z,99281.58
2018-09-10T06:38:05.405Z,99238.63
2018-09-10T06:39:40.939Z,99018.64
2018-09-10T06:41:19.573Z,98900.27
2018-09-10T06:44:38.661Z,98984.23
2018-09-10T06:46:14.386Z,98967.44
2018-09-10T06:47:49.721Z,99087.09
2018-09-10T06:49:24.847Z,99241.72
2018-09-10T06:51:00.309Z,99352.42
2018-09-10T06:52:36.377Z,99419.66
2018-09-10T06:54:11.645Z,99363.38
2018-09-10T06:55:46.801Z,99309.49
2018-09-10T06:57:23.592Z,99310.84
2018-09-10T06:58:59.511Z,99372.34
2018-09-10T07:00:53.156Z,99456.95
2018-09-10T07:02:30.423Z,99467.53
2018-09-10T07:04:05.678Z,99310.47
2018-09-10T07:05:41.390Z,99312.55
2018-09-10T07:07:16.720Z,99349.34
2018-09-10T07:08:52.469Z,99234.83
2018-09-10T07:10:27.998Z,99287.57
2018-09-10T07:12:10.687Z,99263.60
2018-09-10T07:13:50.090Z,99245.04
2018-09-10T07:15:25.842Z,99335.79
2018-09-10T07:17:01.054Z,99342.34
2018-09-10T07:18:38.024Z,99487.23
2018-09-10T07:20:13.495Z,99532.80
2018-09-10T07:21:48.702Z,99516.42
2018-09-10T07:23:24.150Z,99451.75
2018-09-10T07:25:00.867Z,99345.53
2018-09-10T07:26:36.473Z,99275.66
2018-09-10T07:28:12.639Z,99395.15
2018-09-10T07:29:49.969Z,99498.19
2018-09-10T07:31:27.659Z,99562.00
2018-09-10T07:33:03.406Z,99622.62
2018-09-10T07:34:40.877Z,99598.33
2018-09-10T07:36:17.467Z,99443.89
2018-09-10T07:37:54.738Z,99482.78
2018-09-10T07:39:32.837Z,99387.14
2018-09-10T07:41:09.275Z,99320.30
2018-09-10T07:42:44.506Z,99289.03
2018-09-10T07:44:20.245Z,99467.50
2018-09-10T07:45:55.446Z,99554.96
2018-09-10T07:47:33.386Z,99691.13
2018-09-10T07:49:08.594Z,99797.08
2018-09-10T07:50:44.162Z,99856.66
2018-09-10T07:52:19.411Z,99782.91
2018-09-10T07:53:54.648Z,99708.23
2018-09-10T07:55:29.839Z,99771.44
2018-09-10T07:57:07.231Z,99782.52
2018-09-10T07:58:42.747Z,99849.53
2018-09-10T08:00:19.077Z,99805.20
2018-09-10T08:01:54.891Z,99800.30
2018-09-10T08:03:30.553Z,99804.85
2018-09-10T08:05:06.823Z,99796.83
2018-09-10T08:06:42.549Z,99770.19
2018-09-10T08:08:20.122Z,99631.33
2018-09-10T08:09:57.015Z,99728.03
2018-09-10T08:11:32.200Z,99730.22
2018-09-10T08:13:09.134Z,99783.00
2018-09-10T08:14:45.838Z,99766.72
2018-09-10T08:16:24.499Z,99825.80
2018-09-10T08:17:59.730Z,99741.81
2018-09-10T08:19:34.987Z,99769.70
2018-09-10T08:21:10.574Z,99855.05
2018-09-10T08:22:47.651Z,99971.80
2018-09-10T08:24:23.193Z,100022.14
2018-09-10T08:26:00.734Z,99997.60
2018-09-10T08:27:36.251Z,100102.02
2018-09-10T08:29:11.635Z,100187.42
2018-09-10T08:30:48.244Z,100341.77
2018-09-10T08:32:23.465Z,100461.20
2018-09-10T08:33:59.609Z,100572.03
2018-09-10T08:35:37.654Z,100670.22
2018-09-10T08:37:13.647Z,100601.99
2018-09-10T08:38:48.882Z,100666.72
2018-09-10T08:40:25.739Z,100651.48
2018-09-10T08:42:04.434Z,100602.87
2018-09-10T08:43:39.777Z,100468.38
2018-09-10T08:45:18.281Z,100571.77
2018-09-10T08:46:55.224Z,100793.81
2018-09-10T08:48:30.871Z,100768.87
2018-09-10T08:50:07.314Z,100750.15
2018-09-10T08:51:42.564Z,100768.48
2018-09-10T08:53:25.313Z,100565.95
2018-09-10T08:55:01.151Z,100317.95
2018-09-10T08:56:38.457Z,100443.97
2018-09-10T08:58:14.673Z,100568.18
2018-09-10T08:59:49.913Z,100558.38
2018-09-10T09:01:26.716Z,100386.04
2018-09-10T09:03:03.155Z,100309.43
2018-09-10T09:04:38.854Z,100251.29
2018-09-10T09:06:14.124Z,100072.08
2018-09-10T09:07:49.658Z,100179.23
2018-09-10T09:09:24.919Z,100247.61
2018-09-10T09:11:01.117Z,100284.55
2018-09-10T09:12:37.458Z,100316.60
2018-09-10T09:14:13.093Z,100321.06
2018-09-10T09:15:49.057Z,100350.05
2018-09-10T09:17:26.435Z,100325.39
2018-09-10T09:19:04.721Z,100285.81
2018-09-10T09:20:40.266Z,100171.58
2018-09-10T09:22:17.693Z,100194.69
2018-09-10T09:23:53.768Z,100253.87
2018-09-10T09:25:34.717Z,100383.42
2018-09-10T09:27:19.767Z,100442.22
2018-09-10T09:28:57.355Z,100427.99
2018-09-10T09:30:34.674Z,100375.77
2018-09-10T09:32:11.281Z,100386.52
2018-09-10T09:33:48.469Z,100405.72
2018-09-10T09:35:29.434Z,100384.69
2018-09-10T09:37:10.408Z,100374.53
2018-09-10T09:38:52.761Z,100374.53
2018-09-10T09:40:35.143Z,100487.64
2018-09-10T09:42:15.618Z,100636.03
2018-09-10T09:43:59.793Z,100741.78
2018-09-10T09:45:41.389Z,100844.98
2018-09-10T09:47:18.278Z,100868.05
2018-09-10T09:48:54.293Z,100912.34
2018-09-10T09:50:31.767Z,100983.95
2018-09-10T09:52:10.046Z,101021.95
2018-09-10T09:53:47.345Z,101135.86
2018-09-10T09:55:45.317Z,101233.51
2018-09-10T09:57:22.542Z,101154.25
2018-09-10T09:58:58.325Z,101155.61
2018-09-10T10:00:40.779Z,101260.79
2018-09-10T10:02:22.309Z,101277.72
2018-09-10T10:04:02.275Z,101212.90
2018-09-10T10:05:40.693Z,101247.34
2018-09-10T10:07:17.161Z,101247.34
2018-09-10T10:08:52.989Z,101188.30
2018-09-10T10:10:30.676Z,101224.06
2018-09-10T10:12:08.670Z,101233.51
2018-09-10T10:13:43.838Z,101229.42
2018-09-10T10:15:20.471Z,101234.78
2018-09-10T10:16:59.251Z,101195.38
2018-09-10T10:18:34.490Z,101127.41
2018-09-10T10:20:13.488Z,101105.55
2018-09-10T10:21:49.542Z,101083.19
2018-09-10T10:23:25.999Z,101114.95
2018-09-10T10:25:03.234Z,101207.54
2018-09-10T10:26:38.641Z,101222.22
2018-09-10T10:28:15.729Z,101217.73
2018-09-10T10:29:56.453Z,101177.48
2018-09-10T10:31:41.039Z,101190.02
2018-09-10T10:33:17.546Z,101134.61
2018-09-10T10:34:52.830Z,101156.85
2018-09-10T10:36:30.390Z,101110.86
2018-09-10T10:38:06.406Z,101089.00
2018-09-10T10:39:42.253Z,101164.53
2018-09-10T10:41:17.544Z,101168.05
2018-09-10T10:42:54.117Z,101041.97
2018-09-10T10:44:29.943Z,100997.77
2018-09-10T10:46:05.717Z,101055.37
2018-09-10T10:47:43.293Z,100933.32
2018-09-10T10:49:24.138Z,101038.86
2018-09-10T10:50:59.389Z,101171.25
2018-09-10T10:54:38.663Z,101312.94
2018-09-10T10:56:19.137Z,101292.00
2018-09-10T10:57:54.461Z,101255.62
2018-09-10T10:59:30.689Z,101255.62
2018-09-10T11:01:06.741Z,101228.86
2018-09-10T11:02:44.986Z,101104.06
2018-09-10T11:04:21.707Z,101043.60
2018-09-10T11:05:56.886Z,101089.22
2018-09-10T11:07:34.535Z,101143.24
2018-09-10T11:09:11.461Z,101214.36
2018-09-10T11:10:47.476Z,101287.35
2018-09-10T11:12:23.204Z,101327.14
2018-09-10T11:13:58.747Z,101299.41
2018-09-10T11:15:34.348Z,101197.80
2018-09-10T11:17:10.209Z,101221.92
2018-09-10T11:18:55.670Z,101269.73
2018-09-10T11:20:40.495Z,101105.16
2018-09-10T11:22:20.836Z,101222.84
2018-09-10T11:23:57.408Z,101316.73
2018-09-10T11:25:34.496Z,101325.30
2018-09-10T11:27:10.708Z,101307.88
2018-09-10T11:28:47.518Z,101400.37
2018-09-10T11:30:27.258Z,101315.84
2018-09-10T11:32:06.367Z,101421.40
2018-09-10T11:33:43.879Z,101501.29
2018-09-10T11:35:24.226Z,101442.43
2018-09-10T11:37:07.194Z,101373.67
2018-09-10T11:38:46.406Z,101338.14
2018-09-10T11:40:23.661Z,101355.47
2018-09-10T11:42:01.519Z,101363.56
2018-09-10T11:43:39.196Z,101371.17
2018-09-10T11:45:18.037Z,101432.12
2018-09-10T11:46:54.266Z,101396.20
2018-09-10T11:48:29.685Z,101323.64
2018-09-10T11:50:09.621Z,101269.16
2018-09-10T11:51:47.436Z,101225.27
2018-09-10T11:53:27.281Z,101067.84
2018-09-10T11:55:02.946Z,100959.56
2018-09-10T11:56:43.658Z,100987.25
2018-09-10T11:58:21.962Z,101031.09
2018-09-10T11:59:58.189Z,101052.08
2018-09-10T12:01:34.027Z,101070.34
2018-09-10T12:03:09.300Z,101087.34
2018-09-10T12:04:46.873Z,101123.13
2018-09-10T12:06:22.699Z,101251.46
2018-09-10T12:07:58.407Z,101297.97
2018-09-10T12:09:35.627Z,101339.13
2018-09-10T12:11:14.707Z,101353.45
2018-09-10T12:12:50.909Z,101363.27
2018-09-10T12:14:27.849Z,101329.71
2018-09-10T12:16:05.341Z,101275.50
2018-09-10T12:17:44.503Z,101206.20
2018-09-10T12:19:34.087Z,101109.52
2018-09-10T12:21:10.195Z,101121.08
2018-09-10T12:22:47.232Z,101045.67
2018-09-10T12:24:24.279Z,101018.36
2018-09-10T12:25:59.990Z,101066.05
2018-09-10T12:27:35.287Z,101052.26
2018-09-10T12:29:11.630Z,100976.67
2018-09-10T12:30:50.142Z,101024.47
2018-09-10T12:32:27.481Z,100938.19
2018-09-10T12:34:03.376Z,100968.11
2018-09-10T12:35:39.916Z,101021.35
2018-09-10T12:37:16.701Z,101126.34
2018-09-10T12:38:53.933Z,101084.71
2018-09-10T12:40:30.579Z,101093.58
2018-09-10T12:42:09.565Z,101067.72
2018-09-10T12:43:46.793Z,101029.34
2018-09-10T12:45:22.266Z,101077.16
2018-09-10T12:46:57.515Z,101091.34
2018-09-10T12:48:33.995Z,101127.49
2018-09-10T12:50:11.822Z,101131.09
2018-09-10T12:51:48.400Z,101086.29
2018-09-10T12:53:23.810Z,101072.10
2018-09-10T12:55:00.345Z,101070.34
2018-09-10T12:56:35.845Z,100988.42
2018-09-10T12:58:11.057Z,100963.33
2018-09-10T12:59:47.701Z,100947.80
2018-09-10T13:01:23.161Z,100920.89
2018-09-10T13:02:58.422Z,100977.63
2018-09-10T13:04:34.349Z,101000.85
2018-09-10T13:06:09.568Z,101105.05
2018-09-10T13:07:53.207Z,101158.19
2018-09-10T13:09:33.612Z,101182.78
2018-09-10T13:11:15.419Z,101207.39
2018-09-10T13:12:51.982Z,101216.33
2018-09-10T13:14:28.618Z,101101.36
2018-09-10T13:16:06.486Z,101144.75
2018-09-10T13:17:42.486Z,101252.14
2018-09-10T13:19:18.247Z,101280.75
2018-09-10T13:20:53.798Z,101402.44
2018-09-10T13:22:30.261Z,101434.23
2018-09-10T13:24:06.521Z,101282.99
2018-09-10T13:25:43.452Z,101399.80
2018-09-10T13:27:18.741Z,101345.66
2018-09-10T13:28:54.251Z,101327.67
2018-09-10T13:30:29.727Z,101425.66
2018-09-10T13:32:05.656Z,101451.66
2018-09-10T13:33:43.564Z,101508.66
2018-09-10T13:35:19.816Z,101521.12
2018-09-10T13:36:55.731Z,101500.95
2018-09-10T13:38:32.944Z,101463.25
2018-09-10T13:40:09.221Z,101261.77
2018-09-10T13:41:44.922Z,101145.93
2018-09-10T13:43:22.126Z,101267.13
2018-09-10T13:44:58.429Z,101334.67
2018-09-10T13:46:35.633Z,101362.81
2018-09-10T13:48:12.010Z,101322.62
2018-09-10T13:49:48.376Z,101380.33
2018-09-10T13:51:24.727Z,101322.50
2018-09-10T13:53:00.030Z,101271.49
2018-09-10T13:54:36.612Z,101054.98
2018-09-10T13:56:14.753Z,100889.22
2018-09-10T13:57:50.420Z,100805.67
2018-09-10T13:59:26.263Z,100956.65
2018-09-10T14:01:03.604Z,101030.78
2018-09-10T14:02:40.398Z,101036.50
2018-09-10T14:04:19.483Z,100991.41
2018-09-10T14:05:56.305Z,101176.07
2018-09-10T14:07:32.835Z,101269.95
2018-09-10T14:09:09.090Z,101299.05
2018-09-10T14:10:47.786Z,101356.27
2018-09-10T14:12:23.131Z,101368.45
2018-09-10T14:14:00.557Z,101410.94
2018-09-10T14:15:36.065Z,101282.88
2018-09-10T14:17:13.271Z,101194.75
2018-09-10T14:18:50.238Z,101309.75
2018-09-10T14:20:25.687Z,101372.85
2018-09-10T14:22:00.978Z,101376.94
2018-09-10T14:23:38.186Z,101283.28
2018-09-10T14:25:13.459Z,101170.89
2018-09-10T14:26:49.414Z,101083.75
2018-09-10T14:28:24.902Z,101019.69
2018-09-10T14:30:00.579Z,101008.13
2018-09-10T14:31:36.995Z,101021.92
2018-09-10T14:33:19.233Z,101071.59
2018-09-10T14:34:55.958Z,101120.81
2018-09-10T14:36:34.457Z,101194.53
2018-09-10T14:38:13.291Z,101135.52
2018-09-10T14:39:51.554Z,101085.02
2018-09-10T14:41:28.773Z,101250.39
2018-09-10T14:43:04.856Z,101206.13
2018-09-10T14:44:42.111Z,101159.13
2018-09-10T14:46:17.996Z,101270.92
2018-09-10T14:47:54.060Z,101342.16
2018-09-10T14:49:30.622Z,101324.66
2018-09-10T14:51:06.867Z,101347.92
2018-09-10T14:52:43.609Z,101413.28
2018-09-10T14:54:20.582Z,101434.72
2018-09-10T14:55:56.835Z,101447.78
2018-09-10T14:57:32.237Z,101393.14
2018-09-10T14:59:08.869Z,101312.48
2018-09-10T15:00:58.902Z,101265.96
2018-09-10T15:02:39.526Z,101197.08
2018-09-10T15:04:29.121Z,101317.93
2018-09-10T15:06:07.102Z,101278.05
2018-09-10T15:07:43.129Z,101268.99
2018-09-10T15:09:18.643Z,101278.80
2018-09-10T15:10:56.838Z,101251.94
2018-09-10T15:12:36.683Z,101209.43
2018-09-10T15:14:17.789Z,101161.94
2018-09-10T15:16:03.004Z,101201.34
2018-09-10T15:17:46.028Z,101225.09
2018-09-10T15:19:30.153Z,101149.89
2018-09-10T15:21:06.034Z,101009.45
2018-09-10T15:22:42.415Z,101014.81
2018-09-10T15:24:18.757Z,100995.48
2018-09-10T15:25:54.469Z,100944.17
2018-09-10T15:27:31.403Z,100906.66
2018-09-10T15:29:10.637Z,100914.64
2018-09-10T15:30:49.217Z,100928.91
2018-09-10T15:32:25.844Z,100965.64
2018-09-10T15:34:01.295Z,101015.20
2018-09-10T15:35:37.602Z,101067.05
2018-09-10T15:37:13.570Z,101059.84
2018-09-10T15:38:49.633Z,100803.84
2018-09-10T15:40:25.268Z,100760.13
2018-09-10T15:42:02.801Z,100902.58
2018-09-10T15:43:40.196Z,101045.54
2018-09-10T15:45:19.423Z,101106.05
2018-09-10T15:46:54.741Z,101127.31
2018-09-10T15:48:30.090Z,101066.83
2018-09-10T15:50:05.871Z,101044.93
2018-09-10T15:51:41.738Z,101064.11
2018-09-10T15:53:17.045Z,101087.86
2018-09-10T15:54:52.493Z,101046.72
2018-09-10T15:56:27.869Z,101040.45
2018-09-10T15:58:06.603Z,101018.09
2018-09-10T15:59:42.649Z,100989.03
2018-09-10T16:01:19.805Z,101119.62
2018-09-10T16:02:55.946Z,101175.95
2018-09-10T16:04:34.029Z,101162.55
2018-09-10T16:06:11.912Z,101138.78
2018-09-10T16:07:48.918Z,101126.26
2018-09-10T16:09:24.633Z,101117.78
2018-09-10T16:11:00.132Z,101108.37
2018-09-10T16:12:35.339Z,101094.84
2018-09-10T16:14:10.563Z,101097.09
2018-09-10T16:15:46.774Z,101115.06
2018-09-10T16:17:23.815Z,101079.69
2018-09-10T16:19:02.335Z,101029.08
2018-09-10T16:20:40.179Z,100998.29
2018-09-10T16:22:17.113Z,100978.15
2018-09-10T16:23:58.694Z,100947.25
2018-09-10T16:25:40.301Z,100942.41
2018-09-10T16:27:21.807Z,100925.88
2018-09-10T16:28:58.103Z,100926.27
2018-09-10T16:30:34.644Z,100893.27
2018-09-10T16:32:11.749Z,100778.09
2018-09-10T16:33:48.617Z,100826.84
2018-09-10T16:35:28.147Z,100988.46
2018-09-10T16:37:05.444Z,101050.13
2018-09-10T16:38:42.598Z,101097.35
2018-09-10T16:40:19.716Z,101100.47
2018-09-10T16:41:55.577Z,101146.20
2018-09-10T16:43:31.981Z,101165.45
2018-09-10T16:45:11.054Z,101139.39
2018-09-10T16:46:50.197Z,101137.23
2018-09-10T16:48:30.317Z,101149.28
2018-09-10T16:50:06.279Z,101116.62
2018-09-10T16:51:43.531Z,101142.47
2018-09-10T16:53:20.593Z,101137.55
2018-09-10T16:54:57.728Z,101089.19
2018-09-10T16:56:34.989Z,101126.83
2018-09-10T16:58:11.210Z,101099.89
2018-09-10T16:59:51.869Z,101147.34
2018-09-10T17:01:30.300Z,101137.02
2018-09-10T17:03:06.553Z,101156.30
2018-09-10T17:04:46.735Z,101145.50
2018-09-10T17:06:22.535Z,101150.07
2018-09-10T17:07:58.669Z,101124.02
2018-09-10T17:09:36.349Z,101116.33
2018-09-10T17:11:17.902Z,101103.89
2018-09-10T17:13:04.618Z,101067.22
2018-09-10T17:14:45.926Z,101069.84
2018-09-10T17:16:27.114Z,101005.05
2018-09-10T17:18:03.694Z,100993.50
2018-09-10T17:19:41.470Z,100962.59
2018-09-10T17:21:21.661Z,100978.27
2018-09-10T17:23:05.214Z,101009.95
2018-09-10T17:24:58.336Z,101006.36
2018-09-10T17:26:35.261Z,100957.16
2018-09-10T17:28:10.583Z,100945.22
2018-09-10T17:29:45.810Z,101020.27
2018-09-10T17:31:21.447Z,100998.77
2018-09-10T17:32:59.067Z,100999.61
2018-09-10T17:34:36.689Z,100854.08
2018-09-10T17:36:15.125Z,100858.07
2018-09-10T17:37:53.519Z,100882.16
2018-09-10T17:39:28.915Z,100961.63
2018-09-10T17:41:06.195Z,100969.97
2018-09-10T17:42:42.338Z,101020.66
2018-09-10T17:44:19.851Z,101059.92
2018-09-10T17:45:55.913Z,100899.92
2018-09-10T17:47:35.092Z,100696.05
2018-09-10T17:49:10.956Z,100605.05
2018-09-10T17:50:47.931Z,100631.23
2018-09-10T17:52:25.187Z,100732.26
2018-09-10T17:54:04.823Z,100855.35
2018-09-10T17:55:42.730Z,100963.77
2018-09-10T17:57:31.197Z,101012.49
2018-09-10T17:59:14.529Z,101020.05
2018-09-10T18:00:53.293Z,100899.44
2018-09-10T18:02:30.200Z,100869.16
2018-09-10T18:04:06.329Z,100893.12
2018-09-10T18:05:41.718Z,100828.55
2018-09-10T18:07:17.121Z,100817.27
2018-09-10T18:08:54.941Z,100817.27
2018-09-10T18:10:30.630Z,100827.09
2018-09-10T18:12:12.830Z,100824.47
2018-09-10T18:13:48.700Z,100900.31
2018-09-10T18:15:28.726Z,100988.23
2018-09-10T18:17:06.553Z,100930.15
2018-09-10T18:18:47.635Z,100883.42
2018-09-10T18:20:26.452Z,100889.03
2018-09-10T18:22:04.196Z,100866.44
2018-09-10T18:23:40.548Z,100837.40
2018-09-10T18:25:22.413Z,100844.47
2018-09-10T18:27:11.857Z,100907.78
2018-09-10T18:28:50.920Z,100888.16
2018-09-10T18:30:32.164Z,100755.16
2018-09-10T18:32:08.395Z,100562.06
2018-09-10T18:33:47.946Z,100532.72
2018-09-10T18:35:28.522Z,100571.48
2018-09-10T18:37:08.242Z,100599.51
2018-09-10T18:38:45.358Z,100610.16
2018-09-10T18:40:22.345Z,100637.70
2018-09-10T18:42:00.236Z,100596.79
2018-09-10T18:43:38.105Z,100418.98
2018-09-10T18:45:18.576Z,100261.56